createdAt,value
2018-09-27T00:02:15.498Z,102492.57
2018-09-27T00:04:44.792Z,102488.38
2018-09-27T00:07:14.101Z,102494.02
2018-09-27T00:09:43.701Z,102490.91
2018-09-27T00:12:13.067Z,102486.99
2018-09-27T00:14:42.396Z,102483.23
2018-09-27T00:17:11.707Z,102481.17
2018-09-27T00:19:41.076Z,102483.23
2018-09-27T00:22:10.638Z,102488.66
2018-09-27T00:24:40.118Z,102500.86
2018-09-27T00:27:09.419Z,102494.16
2018-09-27T00:29:38.683Z,102488.20
2018-09-27T00:32:08.258Z,102491.13
2018-09-27T00:34:37.607Z,102488.20
2018-09-27T00:37:06.924Z,102495.23
2018-09-27T00:39:36.340Z,102492.50
2018-09-27T00:42:05.649Z,102499.17
2018-09-27T00:44:34.935Z,102499.00
2018-09-27T00:47:04.700Z,102507.23
2018-09-27T00:49:34.040Z,102505.52
2018-09-27T00:52:03.441Z,102504.14
2018-09-27T00:54:33.759Z,102506.55
2018-09-27T00:57:03.800Z,102495.88
2018-09-27T00:59:33.213Z,102496.25
2018-09-27T01:02:02.643Z,102490.95
2018-09-27T01:04:31.985Z,102489.73
2018-09-27T01:07:01.328Z,102483.90
2018-09-27T01:09:30.697Z,102479.27
2018-09-27T01:12:00.042Z,102486.31
2018-09-27T01:14:31.085Z,102485.28
2018-09-27T01:17:01.162Z,102482.94
2018-09-27T01:19:30.622Z,102482.56
2018-09-27T01:22:00.033Z,102478.78
2018-09-27T01:24:29.381Z,102478.77
2018-09-27T01:26:59.383Z,102475.70
2018-09-27T01:29:28.681Z,102473.98
2018-09-27T01:31:59.431Z,102479.28
2018-09-27T01:34:28.878Z,102475.70
2018-09-27T01:36:58.199Z,102481.22
2018-09-27T01:39:27.655Z,102480.87
2018-09-27T01:41:57.071Z,102481.39
2018-09-27T01:44:26.328Z,102482.92
2018-09-27T01:46:55.956Z,102476.41
2018-09-27T01:49:25.278Z,102484.98
2018-09-27T01:51:54.626Z,102477.28
2018-09-27T01:54:24.016Z,102471.93
2018-09-27T01:56:53.381Z,102472.30
2018-09-27T01:59:22.681Z,102473.33
2018-09-27T02:01:52.117Z,102477.80
2018-09-27T02:04:21.439Z,102478.47
2018-09-27T02:06:50.791Z,102478.48
2018-09-27T02:09:20.158Z,102477.09
2018-09-27T02:11:49.484Z,102477.80
2018-09-27T02:14:18.813Z,102474.67
2018-09-27T02:16:48.300Z,102480.87
2018-09-27T02:19:17.766Z,102478.27
2018-09-27T02:21:47.408Z,102471.07
2018-09-27T02:24:17.627Z,102474.19
2018-09-27T02:26:46.888Z,102469.05
2018-09-27T02:29:16.216Z,102479.81
2018-09-27T02:31:45.600Z,102471.24
2018-09-27T02:34:14.893Z,102475.70
2018-09-27T02:36:44.205Z,102476.76
2018-09-27T02:39:13.514Z,102477.93
2018-09-27T02:41:42.820Z,102476.20
2018-09-27T02:44:12.158Z,102474.50
2018-09-27T02:46:41.924Z,102480.48
2018-09-27T02:49:11.281Z,102471.06
2018-09-27T02:51:40.613Z,102474.02
2018-09-27T02:54:09.960Z,102479.12
2018-09-27T02:56:39.270Z,102473.30
2018-09-27T02:59:08.646Z,102472.95
2018-09-27T03:01:38.003Z,102471.28
2018-09-27T03:04:07.672Z,102464.08
2018-09-27T03:06:36.973Z,102462.84
2018-09-27T03:09:10.865Z,102466.10
2018-09-27T03:11:40.199Z,102456.16
2018-09-27T03:14:09.543Z,102449.95
2018-09-27T03:16:39.008Z,102455.80
2018-09-27T03:19:08.361Z,102453.75
2018-09-27T03:21:37.703Z,102448.27
2018-09-27T03:24:07.067Z,102453.91
2018-09-27T03:26:36.326Z,102448.92
2018-09-27T03:29:05.642Z,102456.48
2018-09-27T03:31:35.333Z,102447.75
2018-09-27T03:34:04.727Z,102447.06
2018-09-27T03:36:34.213Z,102452.20
2018-09-27T03:39:03.661Z,102448.95
2018-09-27T03:41:33.007Z,102453.08
2018-09-27T03:44:02.301Z,102456.14
2018-09-27T03:46:31.650Z,102448.59
2018-09-27T03:49:00.970Z,102453.73
2018-09-27T03:51:30.336Z,102451.68
2018-09-27T03:53:59.785Z,102458.52
2018-09-27T03:56:30.930Z,102452.89
2018-09-27T03:59:02.507Z,102447.41
2018-09-27T04:01:31.946Z,102453.42
2018-09-27T04:04:02.107Z,102453.25
2018-09-27T04:06:31.518Z,102458.56
2018-09-27T04:11:29.369Z,102453.74
2018-09-27T04:13:58.840Z,102454.61
2018-09-27T04:16:28.177Z,102452.39
2018-09-27T04:18:57.526Z,102454.28
2018-09-27T04:21:26.893Z,102459.76
2018-09-27T04:23:56.206Z,102464.22
2018-09-27T04:26:25.566Z,102451.01
2018-09-27T04:28:54.944Z,102445.00
2018-09-27T04:31:24.319Z,102442.77
2018-09-27T04:33:53.694Z,102431.11
2018-09-27T04:36:23.041Z,102432.12
2018-09-27T04:38:52.494Z,102443.41
2018-09-27T04:41:21.878Z,102447.87
2018-09-27T04:43:51.228Z,102449.45
2018-09-27T04:46:20.533Z,102449.95
2018-09-27T04:48:49.857Z,102452.51
2018-09-27T04:51:19.239Z,102436.23
2018-09-27T04:53:48.568Z,102437.41
2018-09-27T04:56:17.977Z,102434.48
2018-09-27T04:58:47.416Z,102444.66
2018-09-27T05:01:16.775Z,102441.98
2018-09-27T05:03:46.138Z,102453.09
2018-09-27T05:06:15.509Z,102447.84
2018-09-27T05:08:44.847Z,102446.78
2018-09-27T05:11:14.183Z,102449.34
2018-09-27T05:13:43.748Z,102444.72
2018-09-27T05:16:13.103Z,102456.11
2018-09-27T05:18:42.533Z,102460.63
2018-09-27T05:21:12.260Z,102459.64
2018-09-27T05:23:41.607Z,102459.33
2018-09-27T05:26:11.055Z,102457.23
2018-09-27T05:28:40.479Z,102446.98
2018-09-27T05:31:09.949Z,102452.83
2018-09-27T05:33:39.382Z,102446.68
2018-09-27T05:36:08.653Z,102453.80
2018-09-27T05:38:38.111Z,102462.43
2018-09-27T05:41:07.468Z,102459.30
2018-09-27T05:43:37.279Z,102467.69
2018-09-27T05:46:06.820Z,102458.70
2018-09-27T05:48:36.148Z,102460.60
2018-09-27T05:51:05.654Z,102463.36
2018-09-27T05:53:36.674Z,102459.59
2018-09-27T05:56:06.121Z,102462.88
2018-09-27T05:58:35.376Z,102457.05
2018-09-27T06:01:04.720Z,102459.53
2018-09-27T06:03:34.785Z,102461.22
2018-09-27T06:06:04.136Z,102460.66
2018-09-27T06:08:33.463Z,102464.77
2018-09-27T06:11:03.310Z,102462.95
2018-09-27T06:13:32.610Z,102461.50
2018-09-27T06:16:01.970Z,102461.50
2018-09-27T06:18:31.391Z,102459.83
2018-09-27T06:21:00.947Z,102465.00
2018-09-27T06:23:30.471Z,102469.72
2018-09-27T06:26:00.049Z,102463.05
2018-09-27T06:28:29.407Z,102458.92
2018-09-27T06:30:58.783Z,102461.09
2018-09-27T06:33:28.139Z,102463.80
2018-09-27T06:35:57.508Z,102463.34
2018-09-27T06:38:26.875Z,102470.70
2018-09-27T06:40:56.307Z,102468.08
2018-09-27T06:43:25.687Z,102479.71
2018-09-27T06:45:55.010Z,102481.41
2018-09-27T06:48:24.479Z,102486.84
2018-09-27T06:50:54.071Z,102485.63
2018-09-27T06:53:23.471Z,102483.20
2018-09-27T06:55:52.984Z,102485.80
2018-09-27T06:58:22.384Z,102480.08
2018-09-27T07:00:51.768Z,102480.74
2018-09-27T07:03:21.317Z,102477.57
2018-09-27T07:05:50.722Z,102479.90
2018-09-27T07:08:20.075Z,102484.97
2018-09-27T07:10:49.646Z,102483.45
2018-09-27T07:13:18.994Z,102478.09
2018-09-27T07:15:48.760Z,102483.79
2018-09-27T07:18:18.334Z,102481.56
2018-09-27T07:20:47.839Z,102484.27
2018-09-27T07:23:17.242Z,102489.79
2018-09-27T07:25:50.573Z,102493.18
2018-09-27T07:28:19.984Z,102498.70
2018-09-27T07:30:50.646Z,102499.37
2018-09-27T07:33:20.131Z,102499.68
2018-09-27T07:35:50.431Z,102489.24
2018-09-27T07:38:19.857Z,102485.63
2018-09-27T07:40:49.456Z,102484.45
2018-09-27T07:43:18.998Z,102492.17
2018-09-27T07:45:48.498Z,102495.95
2018-09-27T07:48:18.398Z,102494.37
2018-09-27T07:50:48.026Z,102490.81
2018-09-27T07:53:17.476Z,102500.41
2018-09-27T07:55:46.883Z,102505.50
2018-09-27T07:58:16.311Z,102495.73
2018-09-27T08:00:45.852Z,102500.67
2018-09-27T08:03:15.393Z,102502.59
2018-09-27T08:05:44.824Z,102486.59
2018-09-27T08:08:14.335Z,102486.55
2018-09-27T08:10:44.908Z,102484.84
2018-09-27T08:13:14.512Z,102492.83
2018-09-27T08:15:44.054Z,102484.20
2018-09-27T08:18:13.454Z,102487.98
2018-09-27T08:20:43.043Z,102489.33
2018-09-27T08:23:12.360Z,102489.56
2018-09-27T08:25:41.699Z,102479.06
2018-09-27T08:28:11.193Z,102474.05
2018-09-27T08:30:41.235Z,102474.39
2018-09-27T08:33:11.229Z,102471.59
2018-09-27T08:35:40.908Z,102468.64
2018-09-27T08:38:10.305Z,102469.50
2018-09-27T08:40:39.779Z,102462.88
2018-09-27T08:43:09.201Z,102471.93
2018-09-27T08:45:38.709Z,102460.48
2018-09-27T08:48:08.252Z,102458.65
2018-09-27T08:50:37.685Z,102453.39
2018-09-27T08:53:07.022Z,102454.20
2018-09-27T08:55:36.957Z,102451.73
2018-09-27T08:58:06.195Z,102446.22
2018-09-27T09:00:35.565Z,102445.47
2018-09-27T09:03:06.211Z,102440.32
2018-09-27T09:05:35.683Z,102437.30
2018-09-27T09:08:05.086Z,102432.27
2018-09-27T09:10:34.524Z,102429.73
2018-09-27T09:13:04.077Z,102433.13
2018-09-27T09:15:33.590Z,102423.16
2018-09-27T09:18:03.394Z,102416.77
2018-09-27T09:20:32.916Z,102423.31
2018-09-27T09:23:02.303Z,102415.89
2018-09-27T09:25:31.837Z,102406.26
2018-09-27T09:28:02.496Z,102395.61
2018-09-27T09:30:32.048Z,102391.77
2018-09-27T09:33:01.456Z,102392.04
2018-09-27T09:35:31.673Z,102398.38
2018-09-27T09:38:00.978Z,102384.70
2018-09-27T09:40:30.594Z,102376.20
2018-09-27T09:43:00.467Z,102374.88
2018-09-27T09:45:30.022Z,102375.77
2018-09-27T09:47:59.442Z,102378.31
2018-09-27T09:50:28.820Z,102374.70
2018-09-27T09:52:58.171Z,102377.44
2018-09-27T09:55:27.584Z,102365.71
2018-09-27T09:57:56.988Z,102372.70
2018-09-27T10:00:26.456Z,102358.23
2018-09-27T10:02:56.025Z,102363.55
2018-09-27T10:05:25.420Z,102357.66
2018-09-27T10:07:54.816Z,102354.53
2018-09-27T10:10:24.193Z,102353.53
2018-09-27T10:12:53.520Z,102351.06
2018-09-27T10:15:22.858Z,102354.45
2018-09-27T10:17:52.254Z,102338.75
2018-09-27T10:20:21.641Z,102342.33
2018-09-27T10:22:51.110Z,102339.80
2018-09-27T10:25:21.198Z,102340.23
2018-09-27T10:27:50.770Z,102336.77
2018-09-27T10:30:20.155Z,102339.31
2018-09-27T10:32:49.775Z,102331.56
2018-09-27T10:35:19.076Z,102335.84
2018-09-27T10:37:48.442Z,102326.30
2018-09-27T10:40:17.809Z,102319.87
2018-09-27T10:42:47.583Z,102316.72
2018-09-27T10:45:16.879Z,102321.31
2018-09-27T10:47:46.505Z,102325.16
2018-09-27T10:50:15.857Z,102322.86
2018-09-27T10:52:45.261Z,102324.09
2018-09-27T10:55:14.661Z,102327.87
2018-09-27T10:57:44.143Z,102332.10
2018-09-27T11:00:19.279Z,102325.14
2018-09-27T11:02:48.819Z,102332.09
2018-09-27T11:05:19.764Z,102324.83
2018-09-27T11:07:49.373Z,102328.72
2018-09-27T11:10:18.732Z,102316.92
2018-09-27T11:12:48.289Z,102317.77
2018-09-27T11:15:17.764Z,102316.98
2018-09-27T11:17:47.147Z,102309.70
2018-09-27T11:20:16.607Z,102308.34
2018-09-27T11:22:46.028Z,102300.84
2018-09-27T11:25:15.613Z,102297.76
2018-09-27T11:27:45.114Z,102292.09
2018-09-27T11:30:19.858Z,102300.17
2018-09-27T11:32:49.286Z,102283.33
2018-09-27T11:35:18.835Z,102280.63
2018-09-27T11:37:48.280Z,102270.93
2018-09-27T11:40:17.802Z,102277.34
2018-09-27T11:42:47.171Z,102266.58
2018-09-27T11:45:16.528Z,102263.20
2018-09-27T11:47:45.913Z,102254.13
2018-09-27T11:50:15.561Z,102245.82
2018-09-27T11:52:44.923Z,102247.35
2018-09-27T11:55:14.417Z,102247.75
2018-09-27T11:57:43.826Z,102235.11
2018-09-27T12:00:14.375Z,102233.40
2018-09-27T12:02:44.361Z,102224.84
2018-09-27T12:05:14.077Z,102222.47
2018-09-27T12:07:44.151Z,102211.03
2018-09-27T12:10:13.359Z,102205.53
2018-09-27T12:12:42.775Z,102204.41
2018-09-27T12:15:12.445Z,102199.06
2018-09-27T12:17:41.915Z,102198.36
2018-09-27T12:20:11.619Z,102190.16
2018-09-27T12:22:41.045Z,102183.02
2018-09-27T12:25:10.479Z,102172.09
2018-09-27T12:27:39.822Z,102172.95
2018-09-27T12:30:09.211Z,102173.17
2018-09-27T12:32:38.699Z,102155.31
2018-09-27T12:35:08.169Z,102151.63
2018-09-27T12:37:37.780Z,102143.19
2018-09-27T12:40:07.271Z,102145.13
2018-09-27T12:42:36.732Z,102136.11
2018-09-27T12:45:06.172Z,102127.53
2018-09-27T12:47:35.706Z,102125.94
2018-09-27T12:50:05.135Z,102123.23
2018-09-27T12:52:35.011Z,102119.81
2018-09-27T12:55:04.339Z,102127.53
2018-09-27T12:57:33.716Z,102113.27
2018-09-27T13:00:03.335Z,102118.68
2018-09-27T13:02:32.861Z,102113.41
2018-09-27T13:05:02.122Z,102108.73
2018-09-27T13:07:31.536Z,102108.45
2018-09-27T13:10:01.120Z,102100.39
2018-09-27T13:12:30.569Z,102093.23
2018-09-27T13:14:59.980Z,102101.53
2018-09-27T13:17:29.760Z,102085.41
2018-09-27T13:19:59.158Z,102084.12
2018-09-27T13:22:29.119Z,102072.80
2018-09-27T13:24:58.791Z,102071.40
2018-09-27T13:27:28.286Z,102075.84
2018-09-27T13:29:57.668Z,102070.33
2018-09-27T13:32:27.096Z,102057.99
2018-09-27T13:34:56.456Z,102056.52
2018-09-27T13:37:25.975Z,102049.53
2018-09-27T13:39:55.302Z,102050.34
2018-09-27T13:42:24.608Z,102042.36
2018-09-27T13:44:54.868Z,102040.14
2018-09-27T13:47:24.258Z,102037.14
2018-09-27T13:49:53.584Z,102027.58
2018-09-27T13:52:22.932Z,102025.16
2018-09-27T13:54:52.271Z,102030.17
2018-09-27T13:57:21.712Z,102022.17
2018-09-27T13:59:51.100Z,102018.54
2018-09-27T14:02:20.507Z,102011.24
2018-09-27T14:04:49.938Z,102001.54
2018-09-27T14:07:19.630Z,102000.91
2018-09-27T14:09:49.014Z,101990.88
2018-09-27T14:12:18.491Z,101992.68
2018-09-27T14:14:47.921Z,101989.89
2018-09-27T14:17:17.273Z,101989.21
2018-09-27T14:19:46.688Z,101991.70
2018-09-27T14:22:16.102Z,101989.20
2018-09-27T14:24:45.460Z,101979.63
2018-09-27T14:27:14.816Z,101981.91
2018-09-27T14:29:44.533Z,101978.95
2018-09-27T14:32:13.872Z,101975.59
2018-09-27T14:34:43.188Z,101973.52
2018-09-27T14:37:12.577Z,101971.81
2018-09-27T14:39:41.914Z,101966.56
2018-09-27T14:42:11.270Z,101968.19
2018-09-27T14:44:40.748Z,101962.91
2018-09-27T14:47:10.078Z,101955.56
2018-09-27T14:49:39.481Z,101955.45
2018-09-27T14:52:09.299Z,101949.02
2018-09-27T14:54:38.692Z,101955.96
2018-09-27T14:57:08.176Z,101952.09
2018-09-27T14:59:37.755Z,101946.05
2018-09-27T15:02:07.221Z,101956.28
2018-09-27T15:04:36.547Z,101945.73
2018-09-27T15:07:05.950Z,101941.48
2018-09-27T15:09:35.406Z,101945.02
2018-09-27T15:12:04.681Z,101942.83
2018-09-27T15:14:34.389Z,101941.91
2018-09-27T15:17:03.692Z,101939.76
2018-09-27T15:19:33.037Z,101936.39
2018-09-27T15:22:02.429Z,101928.42
2018-09-27T15:24:31.730Z,101920.90
2018-09-27T15:27:01.060Z,101923.66
2018-09-27T15:29:30.347Z,101924.55
2018-09-27T15:31:59.740Z,101917.98
2018-09-27T15:34:29.063Z,101923.61
2018-09-27T15:36:58.663Z,101918.97
2018-09-27T15:39:27.959Z,101916.08
2018-09-27T15:41:57.254Z,101912.03
2018-09-27T15:44:26.906Z,101905.77
2018-09-27T15:46:56.295Z,101907.97
2018-09-27T15:49:25.649Z,101906.20
2018-09-27T15:51:55.064Z,101900.73
2018-09-27T15:54:24.386Z,101894.45
2018-09-27T15:56:53.824Z,101883.23
2018-09-27T15:59:23.502Z,101889.38
2018-09-27T16:01:52.883Z,101891.37
2018-09-27T16:04:22.369Z,101889.68
2018-09-27T16:06:51.720Z,101888.72
2018-09-27T16:09:21.114Z,101876.39
2018-09-27T16:11:50.508Z,101881.94
2018-09-27T16:14:19.986Z,101879.92
2018-09-27T16:16:49.316Z,101881.66
2018-09-27T16:19:18.755Z,101883.63
2018-09-27T16:21:48.241Z,101880.94
2018-09-27T16:24:17.561Z,101876.41
2018-09-27T16:26:46.877Z,101870.92
2018-09-27T16:29:16.336Z,101859.84
2018-09-27T16:31:45.713Z,101870.16
2018-09-27T16:34:15.134Z,101865.48
2018-09-27T16:36:44.513Z,101861.63
2018-09-27T16:39:13.836Z,101851.69
2018-09-27T16:41:43.277Z,101859.41
2018-09-27T16:44:12.776Z,101857.33
2018-09-27T16:46:42.241Z,101844.42
2018-09-27T16:49:11.562Z,101845.38
2018-09-27T16:51:41.029Z,101847.01
2018-09-27T16:54:10.351Z,101841.34
2018-09-27T16:56:39.756Z,101845.39
2018-09-27T16:59:09.236Z,101846.58
2018-09-27T17:01:38.653Z,101842.27
2018-09-27T17:04:08.238Z,101848.88
2018-09-27T17:06:38.815Z,101840.42
2018-09-27T17:09:09.305Z,101844.19
2018-09-27T17:11:38.837Z,101834.88
2018-09-27T17:14:08.317Z,101827.18
2018-09-27T17:16:37.666Z,101820.72
2018-09-27T17:19:07.692Z,101823.47
2018-09-27T17:21:37.034Z,101821.68
2018-09-27T17:24:06.335Z,101818.54
2018-09-27T17:26:35.889Z,101814.66
2018-09-27T17:29:05.225Z,101806.66
2018-09-27T17:31:34.553Z,101806.20
2018-09-27T17:34:04.016Z,101805.17
2018-09-27T17:36:33.328Z,101807.48
2018-09-27T17:39:02.621Z,101807.24
2018-09-27T17:41:32.003Z,101803.85
2018-09-27T17:44:01.340Z,101800.91
2018-09-27T17:46:30.687Z,101798.36
2018-09-27T17:49:00.513Z,101799.63
2018-09-27T17:51:29.925Z,101796.23
2018-09-27T17:53:59.252Z,101793.91
2018-09-27T17:56:28.666Z,101787.92
2018-09-27T17:58:58.059Z,101789.96
2018-09-27T18:01:27.377Z,101792.63
2018-09-27T18:03:56.789Z,101788.95
2018-09-27T18:06:26.142Z,101792.78
2018-09-27T18:08:55.600Z,101791.21
2018-09-27T18:11:25.283Z,101790.21
2018-09-27T18:13:54.824Z,101791.94
2018-09-27T18:16:24.349Z,101796.80
2018-09-27T18:18:53.742Z,101790.52
2018-09-27T18:21:23.126Z,101797.27
2018-09-27T18:23:52.487Z,101794.75
2018-09-27T18:26:21.885Z,101800.83
2018-09-27T18:28:51.316Z,101796.37
2018-09-27T18:31:20.722Z,101793.88
2018-09-27T18:33:50.558Z,101796.08
2018-09-27T18:36:19.897Z,101791.94
2018-09-27T18:38:49.249Z,101795.78
2018-09-27T18:41:18.769Z,101791.03
2018-09-27T18:43:48.228Z,101798.67
2018-09-27T18:46:17.606Z,101795.19
2018-09-27T18:48:47.090Z,101794.66
2018-09-27T18:51:16.516Z,101797.42
2018-09-27T18:53:45.916Z,101797.42
2018-09-27T18:56:16.022Z,101790.22
2018-09-27T18:58:45.424Z,101791.48
2018-09-27T19:01:14.760Z,101787.03
2018-09-27T19:03:44.169Z,101788.73
2018-09-27T19:06:13.567Z,101786.14
2018-09-27T19:08:43.117Z,101781.16
2018-09-27T19:11:12.580Z,101774.77
2018-09-27T19:13:42.422Z,101772.87
2018-09-27T19:16:11.833Z,101779.55
2018-09-27T19:18:41.375Z,101778.84
2018-09-27T19:21:15.921Z,101775.54
2018-09-27T19:23:47.425Z,101774.67
2018-09-27T19:26:16.755Z,101768.20
2018-09-27T19:28:47.079Z,101764.39
2018-09-27T19:31:18.114Z,101761.84
2018-09-27T19:33:47.499Z,101765.45
2018-09-27T19:36:17.385Z,101760.13
2018-09-27T19:38:47.112Z,101755.17
2018-09-27T19:41:16.660Z,101754.44
2018-09-27T19:43:46.357Z,101751.89
2018-09-27T19:46:15.754Z,101743.78
2018-09-27T19:48:45.192Z,101744.61
2018-09-27T19:51:15.527Z,101738.05
2018-09-27T19:53:45.026Z,101735.00
2018-09-27T19:56:14.432Z,101737.08
2018-09-27T19:58:44.714Z,101735.64
2018-09-27T20:01:15.183Z,101738.23
2018-09-27T20:03:44.855Z,101734.84
2018-09-27T20:06:14.283Z,101726.78
2018-09-27T20:08:44.636Z,101731.77
2018-09-27T20:11:14.177Z,101724.13
2018-09-27T20:13:43.552Z,101722.78
2018-09-27T20:16:13.719Z,101721.77
2018-09-27T20:18:45.149Z,101724.00
2018-09-27T20:21:14.944Z,101713.41
2018-09-27T20:23:45.232Z,101710.04
2018-09-27T20:26:14.631Z,101706.39
2018-09-27T20:28:45.740Z,101703.26
2018-09-27T20:31:15.097Z,101703.29
2018-09-27T20:33:44.486Z,101710.19
2018-09-27T20:36:16.677Z,101702.09
2018-09-27T20:38:46.834Z,101707.94
2018-09-27T20:41:16.184Z,101713.71
2018-09-27T20:43:45.649Z,101710.66
2018-09-27T20:46:15.797Z,101714.11
2018-09-27T20:48:45.254Z,101712.61
2018-09-27T20:51:15.277Z,101713.34
2018-09-27T20:53:45.059Z,101708.66
2018-09-27T20:56:15.790Z,101706.16
2018-09-27T20:58:45.946Z,101702.81
2018-09-27T21:01:16.623Z,101703.39
2018-09-27T21:03:45.993Z,101702.48
2018-09-27T21:06:15.354Z,101699.18
2018-09-27T21:08:45.483Z,101702.84
2018-09-27T21:11:14.937Z,101703.17
2018-09-27T21:13:45.954Z,101701.68
2018-09-27T21:16:15.425Z,101701.88
2018-09-27T21:18:45.692Z,101695.59
2018-09-27T21:21:15.119Z,101695.77
2018-09-27T21:23:44.435Z,101692.95
2018-09-27T21:26:14.557Z,101687.66
2018-09-27T21:28:43.926Z,101690.92
2018-09-27T21:31:13.371Z,101693.02
2018-09-27T21:33:42.845Z,101694.39
2018-09-27T21:36:12.881Z,101689.16
2018-09-27T21:38:42.233Z,101691.25
2018-09-27T21:41:12.294Z,101678.17
2018-09-27T21:43:41.708Z,101678.17
2018-09-27T21:46:11.145Z,101674.66
2018-09-27T21:48:40.598Z,101663.53
2018-09-27T21:51:09.928Z,101661.77
2018-09-27T21:53:39.379Z,101659.01
2018-09-27T21:56:08.780Z,101650.59
2018-09-27T21:58:38.377Z,101651.28
2018-09-27T22:01:08.249Z,101648.55
2018-09-27T22:03:37.962Z,101640.88
2018-09-27T22:06:07.843Z,101643.75
2018-09-27T22:08:37.490Z,101649.30
2018-09-27T22:11:06.965Z,101656.89
2018-09-27T22:13:36.413Z,101652.06
2018-09-27T22:16:05.837Z,101650.57
2018-09-27T22:18:35.424Z,101651.86
2018-09-27T22:21:04.910Z,101643.03
2018-09-27T22:23:34.239Z,101643.11
2018-09-27T22:26:04.762Z,101638.94
2018-09-27T22:28:34.101Z,101633.45
2018-09-27T22:31:03.530Z,101635.75
2018-09-27T22:33:32.949Z,101639.61
2018-09-27T22:36:02.354Z,101639.48
2018-09-27T22:38:31.885Z,101645.95
2018-09-27T22:41:01.295Z,101643.44
2018-09-27T22:43:30.747Z,101636.06
2018-09-27T22:46:00.155Z,101631.88
2018-09-27T22:48:29.744Z,101636.64
2018-09-27T22:50:59.166Z,101631.95
2018-09-27T22:53:28.572Z,101632.92
2018-09-27T22:55:57.936Z,101633.63
2018-09-27T22:58:27.290Z,101634.98
2018-09-27T23:00:56.884Z,101642.38
2018-09-27T23:03:27.336Z,101644.29
2018-09-27T23:05:56.716Z,101640.66
2018-09-27T23:08:26.014Z,101641.01
2018-09-27T23:10:55.462Z,101637.91
2018-09-27T23:13:24.828Z,101646.36
2018-09-27T23:15:54.126Z,101645.31
2018-09-27T23:18:23.475Z,101645.08
2018-09-27T23:20:52.930Z,101643.20
2018-09-27T23:23:22.259Z,101642.94
2018-09-27T23:25:51.768Z,101645.42
2018-09-27T23:28:21.142Z,101645.14
2018-09-27T23:30:50.716Z,101648.30
2018-09-27T23:33:20.427Z,101647.11
2018-09-27T23:35:50.392Z,101647.37
2018-09-27T23:38:19.866Z,101637.39
2018-09-27T23:40:49.527Z,101643.73
2018-09-27T23:43:18.855Z,101647.66
2018-09-27T23:45:48.256Z,101644.97
2018-09-27T23:48:17.674Z,101641.25
2018-09-27T23:50:47.042Z,101652.30
2018-09-27T23:53:16.502Z,101649.48
2018-09-27T23:55:46.103Z,101650.53
2018-09-27T23:58:15.528Z,101652.55
